createdAt,value
2019-02-26T00:01:39.306Z,26.68
2019-02-26T00:06:47.161Z,27.98
2019-02-26T00:11:47.763Z,27.02
2019-02-26T00:16:51.070Z,24.85
2019-02-26T00:21:54.480Z,27.87
2019-02-26T00:26:58.514Z,27.37
2019-02-26T00:32:02.700Z,24.00
2019-02-26T00:37:08.387Z,25.25
2019-02-26T00:42:11.265Z,23.70
2019-02-26T00:47:14.447Z,25.50
2019-02-26T00:52:18.176Z,24.92
2019-02-26T00:57:21.659Z,22.95
2019-02-26T01:02:25.091Z,24.37
2019-02-26T01:07:28.671Z,27.85
2019-02-26T01:12:35.266Z,25.97
2019-02-26T01:17:40.113Z,21.43
2019-02-26T01:22:45.356Z,21.82
2019-02-26T01:27:51.075Z,26.87
2019-02-26T01:32:53.987Z,24.60
2019-02-26T01:37:59.945Z,26.60
2019-02-26T01:43:03.204Z,23.85
2019-02-26T01:48:09.226Z,27.95
2019-02-26T01:53:14.595Z,25.32
2019-02-26T01:58:18.534Z,24.27
2019-02-26T02:03:23.002Z,24.10
2019-02-26T02:08:26.968Z,24.15
2019-02-26T02:13:30.584Z,17.57
2019-02-26T02:18:35.584Z,22.10
2019-02-26T02:23:38.703Z,22.45
2019-02-26T02:28:42.469Z,23.00
2019-02-26T02:33:45.710Z,23.22
2019-02-26T02:38:49.422Z,22.75
2019-02-26T02:43:52.813Z,23.98
2019-02-26T02:48:56.055Z,23.00
2019-02-26T02:53:59.402Z,21.20
2019-02-26T02:59:03.464Z,21.10
2019-02-26T03:04:07.575Z,22.13
2019-02-26T03:09:17.020Z,20.40
2019-02-26T03:14:19.482Z,20.10
2019-02-26T03:19:22.466Z,21.48
2019-02-26T03:24:28.422Z,16.93
2019-02-26T03:29:31.214Z,18.05
2019-02-26T03:34:34.307Z,19.48
2019-02-26T03:39:37.329Z,17.07
2019-02-26T03:44:46.171Z,17.67
2019-02-26T03:49:47.149Z,19.70
2019-02-26T03:54:50.767Z,18.30
2019-02-26T03:59:53.921Z,15.15
2019-02-26T04:04:59.920Z,17.73
2019-02-26T04:10:02.307Z,17.27
2019-02-26T04:15:07.495Z,16.65
2019-02-26T04:20:12.241Z,13.83
2019-02-26T04:25:36.016Z,17.15
2019-02-26T04:31:26.634Z,18.07
2019-02-26T04:37:17.363Z,14.85
2019-02-26T04:43:16.748Z,18.42
2019-02-26T04:48:23.690Z,19.27
2019-02-26T04:53:28.741Z,19.05
2019-02-26T04:58:34.323Z,13.30
2019-02-26T05:03:37.638Z,17.42
2019-02-26T05:08:42.788Z,19.60
2019-02-26T05:13:45.604Z,17.55
2019-02-26T05:18:49.626Z,18.10
2019-02-26T05:23:55.178Z,18.62
2019-02-26T05:28:58.562Z,19.23
2019-02-26T05:34:01.611Z,17.05
2019-02-26T05:39:07.394Z,17.42
2019-02-26T05:44:10.837Z,17.57
2019-02-26T05:49:16.419Z,17.67
2019-02-26T05:54:21.575Z,16.60
2019-02-26T05:59:23.782Z,17.50
2019-02-26T06:04:26.908Z,15.03
2019-02-26T06:09:33.002Z,18.15
2019-02-26T06:14:36.260Z,17.75
2019-02-26T06:19:48.064Z,17.30
2019-02-26T06:24:55.018Z,17.10
2019-02-26T06:29:58.180Z,18.40
2019-02-26T06:35:01.356Z,16.48
2019-02-26T06:40:07.441Z,16.75
2019-02-26T06:45:13.920Z,19.82
2019-02-26T06:50:18.884Z,18.42
2019-02-26T06:55:21.824Z,18.35
2019-02-26T07:00:27.003Z,17.32
2019-02-26T07:05:29.940Z,18.17
2019-02-26T07:10:33.684Z,19.48
2019-02-26T07:15:36.940Z,16.05
2019-02-26T07:20:46.541Z,14.10
2019-02-26T07:25:44.921Z,16.25
2019-02-26T07:30:48.119Z,17.10
2019-02-26T07:35:52.272Z,16.07
2019-02-26T07:40:56.544Z,16.45
2019-02-26T07:46:00.446Z,16.10
2019-02-26T07:51:03.608Z,16.57
2019-02-26T07:56:08.637Z,15.13
2019-02-26T08:01:11.670Z,14.63
2019-02-26T08:06:14.649Z,18.73
2019-02-26T08:11:17.725Z,13.50
2019-02-26T08:16:23.045Z,15.72
2019-02-26T08:21:27.123Z,15.95
2019-02-26T08:26:30.859Z,16.32
2019-02-26T08:31:33.905Z,14.38
2019-02-26T08:36:36.930Z,16.80
2019-02-26T08:41:40.210Z,10.45
2019-02-26T08:46:44.467Z,13.48
2019-02-26T08:51:48.392Z,12.13
2019-02-26T08:56:54.050Z,13.10
2019-02-26T09:01:57.135Z,11.55
2019-02-26T09:07:01.948Z,12.47
2019-02-26T09:12:05.112Z,12.93
2019-02-26T09:17:08.246Z,12.63
2019-02-26T09:22:14.008Z,13.32
2019-02-26T09:27:16.539Z,11.97
2019-02-26T09:32:19.516Z,12.03
2019-02-26T09:37:22.777Z,12.88
2019-02-26T09:42:27.835Z,12.20
2019-02-26T09:47:33.474Z,10.13
2019-02-26T09:52:36.422Z,12.23
2019-02-26T09:57:39.390Z,9.48
2019-02-26T10:02:43.001Z,14.73
2019-02-26T10:07:47.873Z,13.98
2019-02-26T10:12:53.412Z,13.72
2019-02-26T10:17:58.325Z,12.37
2019-02-26T10:23:03.431Z,11.80
2019-02-26T10:28:09.656Z,11.83
2019-02-26T10:33:11.379Z,12.17
2019-02-26T10:38:14.542Z,11.88
2019-02-26T10:43:17.628Z,14.23
2019-02-26T10:48:24.454Z,13.72
2019-02-26T10:53:25.994Z,10.63
2019-02-26T10:58:28.996Z,10.82
2019-02-26T11:03:35.378Z,13.83
2019-02-26T11:08:37.078Z,13.98
2019-02-26T11:13:42.282Z,12.03
2019-02-26T11:18:47.542Z,12.00
2019-02-26T11:23:50.353Z,11.55
2019-02-26T11:28:53.511Z,13.28
2019-02-26T11:33:59.916Z,14.53
2019-02-26T11:39:02.287Z,14.33
2019-02-26T11:44:09.862Z,9.73
2019-02-26T11:49:14.314Z,9.20
2019-02-26T11:54:17.696Z,9.35
2019-02-26T11:59:21.064Z,10.20
2019-02-26T12:04:25.016Z,9.25
2019-02-26T12:09:30.006Z,10.55
2019-02-26T12:14:34.692Z,10.58
2019-02-26T12:19:38.115Z,9.85
2019-02-26T12:24:41.427Z,9.83
2019-02-26T12:29:45.525Z,8.90
2019-02-26T12:34:51.465Z,9.93
2019-02-26T12:39:55.547Z,9.35
2019-02-26T12:45:01.864Z,8.13
2019-02-26T12:50:08.126Z,8.48
2019-02-26T12:55:10.959Z,7.77
2019-02-26T13:00:17.232Z,7.17
2019-02-26T13:05:22.913Z,9.28
2019-02-26T13:10:26.493Z,7.40
2019-02-26T13:15:29.556Z,6.22
2019-02-26T13:20:32.709Z,6.53
2019-02-26T13:25:35.782Z,9.80
2019-02-26T13:30:39.227Z,6.05
2019-02-26T13:35:45.596Z,7.78
2019-02-26T13:40:47.250Z,7.30
2019-02-26T13:45:50.500Z,6.08
2019-02-26T13:50:53.924Z,8.83
2019-02-26T13:55:57.138Z,6.00
2019-02-26T14:01:00.575Z,7.28
2019-02-26T14:06:03.568Z,5.50
2019-02-26T14:11:06.662Z,6.12
2019-02-26T14:16:09.776Z,6.42
2019-02-26T14:21:13.035Z,6.45
2019-02-26T14:26:16.195Z,5.78
2019-02-26T14:31:19.315Z,5.75
2019-02-26T14:36:22.398Z,6.35
2019-02-26T14:41:25.510Z,5.85
2019-02-26T14:46:28.586Z,4.75
2019-02-26T14:51:31.931Z,6.17
2019-02-26T14:56:34.959Z,6.37
2019-02-26T15:01:37.997Z,5.72
2019-02-26T15:06:40.979Z,4.83
2019-02-26T15:11:44.208Z,5.20
2019-02-26T15:16:47.184Z,5.37
2019-02-26T15:21:50.370Z,6.37
2019-02-26T15:26:53.619Z,6.95
2019-02-26T15:31:56.755Z,5.25
2019-02-26T15:37:00.170Z,6.30
2019-02-26T15:42:03.232Z,5.47
2019-02-26T15:47:06.363Z,4.72
2019-02-26T15:52:09.425Z,5.67
2019-02-26T15:57:12.430Z,6.78
2019-02-26T16:02:15.559Z,7.20
2019-02-26T16:07:18.805Z,7.58
2019-02-26T16:12:22.274Z,8.10
2019-02-26T16:17:25.396Z,5.95
2019-02-26T16:22:28.546Z,5.47
2019-02-26T16:27:37.733Z,6.17
2019-02-26T16:32:37.400Z,5.28
2019-02-26T16:37:42.266Z,6.08
2019-02-26T16:42:45.423Z,5.27
2019-02-26T16:47:49.410Z,5.35
2019-02-26T16:52:52.672Z,5.55
2019-02-26T16:57:55.736Z,5.05
2019-02-26T17:03:00.839Z,5.65
2019-02-26T17:08:04.274Z,5.67
2019-02-26T17:13:07.354Z,5.87
2019-02-26T17:18:10.469Z,5.90
2019-02-26T17:23:14.073Z,5.97
2019-02-26T17:28:17.707Z,6.40
2019-02-26T17:33:20.699Z,5.43
2019-02-26T17:38:23.677Z,5.47
2019-02-26T17:43:26.811Z,4.33
2019-02-26T17:48:31.069Z,7.85
2019-02-26T17:53:34.458Z,6.40
2019-02-26T17:58:37.454Z,10.88
2019-02-26T18:03:44.580Z,9.08
2019-02-26T18:08:45.353Z,8.55
2019-02-26T18:13:48.431Z,9.08
2019-02-26T18:18:54.506Z,7.80
2019-02-26T18:23:57.758Z,8.23
2019-02-26T18:29:00.850Z,7.80
2019-02-26T18:34:05.682Z,7.53
2019-02-26T18:39:10.440Z,7.10
2019-02-26T18:44:13.567Z,7.25
2019-02-26T18:49:16.595Z,7.75
2019-02-26T18:54:20.316Z,7.60
2019-02-26T18:59:24.149Z,6.35
2019-02-26T19:04:27.350Z,8.00
2019-02-26T19:09:30.397Z,8.25
2019-02-26T19:14:33.411Z,6.87
2019-02-26T19:19:36.415Z,6.75
2019-02-26T19:24:39.546Z,6.85
2019-02-26T19:29:42.659Z,7.42
2019-02-26T19:34:45.752Z,7.42
2019-02-26T19:39:48.768Z,6.80
2019-02-26T19:44:51.871Z,6.80
2019-02-26T19:49:54.960Z,6.50
2019-02-26T19:54:57.932Z,6.03
2019-02-26T20:00:01.169Z,7.28
2019-02-26T20:05:05.059Z,7.42
2019-02-26T20:10:09.380Z,6.90
2019-02-26T20:15:13.327Z,6.58
2019-02-26T20:20:16.848Z,6.95
2019-02-26T20:25:20.325Z,7.05
2019-02-26T20:30:23.621Z,7.42
2019-02-26T20:35:26.674Z,7.30
2019-02-26T20:40:29.692Z,7.60
2019-02-26T20:45:32.789Z,6.50
2019-02-26T20:50:35.765Z,7.33
2019-02-26T20:55:38.717Z,6.50
2019-02-26T21:00:42.450Z,5.80
2019-02-26T21:05:45.922Z,7.25
2019-02-26T21:10:48.999Z,8.25
2019-02-26T21:15:52.074Z,6.97
2019-02-26T21:20:55.170Z,8.18
2019-02-26T21:25:58.345Z,9.08
2019-02-26T21:31:01.783Z,9.20
2019-02-26T21:36:04.963Z,11.80
2019-02-26T21:41:08.313Z,10.78
2019-02-26T21:46:11.623Z,9.30
2019-02-26T21:51:14.767Z,11.48
2019-02-26T21:56:17.925Z,10.08
2019-02-26T22:01:21.107Z,9.30
2019-02-26T22:06:24.131Z,11.57
2019-02-26T22:11:27.087Z,10.85
2019-02-26T22:16:30.234Z,9.60
2019-02-26T22:21:33.175Z,10.70
2019-02-26T22:26:36.124Z,10.45
2019-02-26T22:31:39.100Z,13.30
2019-02-26T22:36:42.097Z,10.95
2019-02-26T22:41:45.077Z,16.65
2019-02-26T22:46:48.089Z,16.07
2019-02-26T22:51:51.267Z,15.40
2019-02-26T22:56:56.710Z,15.50
2019-02-26T23:01:59.269Z,13.25
2019-02-26T23:07:04.450Z,15.70
2019-02-26T23:12:08.025Z,14.63
2019-02-26T23:17:12.016Z,15.40
2019-02-26T23:22:15.314Z,16.97
2019-02-26T23:27:18.819Z,17.37
2019-02-26T23:32:23.054Z,16.30
2019-02-26T23:37:26.726Z,19.60
2019-02-26T23:42:30.752Z,19.98
2019-02-26T23:47:35.157Z,17.17
2019-02-26T23:52:38.609Z,19.57
2019-02-26T23:57:41.692Z,19.53
